Weather reports worldwide

Advertisment
Inverness/Dalcross, United Kingdom (3059): temperature & dewpoint: 06.11.2019 06:00:00 - 12.11.2019 06:00:00 (GMT)Inverness/Dalcross, United Kingdom (3059): wind speed: 06.11.2019 06:00:00 - 12.11.2019 06:00:00 (GMT)Inverness/Dalcross, United Kingdom (3059): wind direction: 06.11.2019 06:00:00 - 12.11.2019 06:00:00 (GMT)Inverness/Dalcross, United Kingdom (3059): visibility: 06.11.2019 06:00:00 - 12.11.2019 06:00:00 (GMT)
Date & Time tt [°C] td [°C] ff [km/h] ff [kn] dd vv [km]
12.11.2019 06:00:00 - - - - - -
12.11.2019 05:00:00 7,0 6,0 21 11 N 10
12.11.2019 04:00:00 7,0 6,0 26 14 N 10
12.11.2019 03:00:00 6,0 5,0 18 10 NNW 10
12.11.2019 02:00:00 5,0 5,0 13 7 NNW 9
12.11.2019 01:00:00 5,0 5,0 8 4 NW 5
12.11.2019 00:00:00 4,0 4,0 9 5 SW 10
11.11.2019 23:00:00 3,0 3,0 5 3 SW 10
11.11.2019 22:00:00 2,0 2,0 2 1 SSW 10
11.11.2019 21:00:00 4,0 3,0 4 2 SSW 10
11.11.2019 20:00:00 4,0 3,0 5 3 SSW 10
11.11.2019 19:00:00 4,0 3,0 5 3 SSW 7
11.11.2019 18:00:00 4,0 3,0 8 4 SSW 10
11.11.2019 17:00:00 4,0 3,0 5 3 SSW 10
11.11.2019 16:00:00 4,0 3,0 9 5 SSW 8
11.11.2019 15:00:00 4,0 3,0 8 4 SW 10
11.11.2019 14:00:00 4,0 3,0 13 7 SW 10
11.11.2019 13:00:00 4,0 3,0 11 6 SW 10
11.11.2019 12:00:00 4,0 3,0 11 6 SW 10
11.11.2019 11:00:00 4,0 3,0 5 3 SSW 10
11.11.2019 10:00:00 3,0 2,0 2 1 SSW 10
11.11.2019 09:00:00 1,0 1,0 0 0 N 10
11.11.2019 08:00:00 2,0 0,0 2 1 - 10
11.11.2019 07:00:00 2,0 1,0 2 1 ENE 10
11.11.2019 06:00:00 3,0 1,0 8 4 ENE 10
11.11.2019 05:00:00 4,0 2,0 9 5 E 10
11.11.2019 04:00:00 4,0 2,0 5 3 - 10
11.11.2019 03:00:00 4,0 1,0 5 3 - 10
11.11.2019 02:00:00 4,0 1,0 16 9 E 10
11.11.2019 01:00:00 3,0 1,0 15 8 ENE 10
11.11.2019 00:00:00 3,0 1,0 9 5 E 10
10.11.2019 23:00:00 3,0 1,0 11 6 E 10
10.11.2019 22:00:00 2,0 0,0 5 3 E 10
10.11.2019 21:00:00 2,0 0,0 4 2 E 10
10.11.2019 20:00:00 3,0 0,0 9 5 E 10
10.11.2019 19:00:00 3,0 0,0 5 3 SE 10
10.11.2019 18:00:00 2,0 0,0 11 6 E 10
10.11.2019 17:00:00 3,0 0,0 9 5 ESE 10
10.11.2019 16:00:00 1,0 0,0 5 3 ESE 10
10.11.2019 15:00:00 3,0 1,0 4 2 ENE 10
10.11.2019 14:00:00 4,0 2,0 0 0 N 10
10.11.2019 13:00:00 5,0 2,0 0 0 N 10
10.11.2019 12:00:00 4,0 2,0 2 1 SW 10
10.11.2019 11:00:00 1,0 1,0 0 0 N 10
10.11.2019 10:00:00 1,0 0,0 5 3 SW 10
10.11.2019 09:00:00 -1,0 -2,0 5 3 SW 10
10.11.2019 08:00:00 -2,0 -2,0 9 5 SW 10
10.11.2019 07:00:00 -2,0 -2,0 8 4 SW 10
10.11.2019 06:00:00 -1,0 -1,0 5 3 SW 10
10.11.2019 05:00:00 0,0 0,0 5 3 SW 10
10.11.2019 04:00:00 -1,0 -1,0 4 2 SSW 10
10.11.2019 03:00:00 0,0 -1,0 5 3 SSW 10
10.11.2019 02:00:00 0,0 0,0 8 4 SSW 10
10.11.2019 01:00:00 -1,0 -1,0 4 2 S 10
10.11.2019 00:00:00 2,0 2,0 2 1 - 10
09.11.2019 23:00:00 0,0 -1,0 2 1 SSW 10
09.11.2019 22:00:00 0,0 -1,0 2 1 S 10
09.11.2019 21:00:00 0,0 0,0 0 0 N 10
09.11.2019 20:00:00 0,0 0,0 0 0 N 10
09.11.2019 19:00:00 - - - - - -
09.11.2019 18:00:00 0,0 -1,0 2 1 NE 10
09.11.2019 17:00:00 1,0 0,0 5 3 NE 10
09.11.2019 16:00:00 2,0 0,0 8 4 E 10
09.11.2019 15:00:00 4,0 2,0 9 5 ENE 10
09.11.2019 14:00:00 4,0 2,0 9 5 ENE 10
09.11.2019 13:00:00 5,0 2,0 8 4 ENE 10
09.11.2019 12:00:00 5,0 1,0 9 5 SE 10
09.11.2019 11:00:00 3,0 0,0 9 5 ESE 10
09.11.2019 10:00:00 1,0 0,0 8 4 ESE 10
09.11.2019 09:00:00 -4,0 -4,0 0 0 N 10
09.11.2019 08:00:00 -4,0 -5,0 0 0 N 10
09.11.2019 07:00:00 -5,0 -5,0 0 0 N 10
09.11.2019 06:00:00 -4,0 -5,0 0 0 N 10
09.11.2019 05:00:00 -3,0 -4,0 0 0 N 10
09.11.2019 04:00:00 -3,0 -3,0 0 0 N 10
09.11.2019 03:00:00 -4,0 -4,0 0 0 N 10
09.11.2019 02:00:00 -3,0 -4,0 0 0 N 10
09.11.2019 01:00:00 -3,0 -4,0 0 0 N 10
09.11.2019 00:00:00 -3,0 -4,0 0 0 N 10
08.11.2019 23:00:00 -3,0 -4,0 0 0 N 10
08.11.2019 22:00:00 - - - - - -
08.11.2019 21:00:00 -2,0 -3,0 0 0 N 10
08.11.2019 20:00:00 -2,0 -2,0 0 0 N 10
08.11.2019 19:00:00 -1,0 -1,0 0 0 N 10
08.11.2019 18:00:00 2,0 1,0 2 1 SSE 10
08.11.2019 17:00:00 2,0 2,0 2 1 SW 10
08.11.2019 16:00:00 3,0 2,0 2 1 SW 10
08.11.2019 15:00:00 4,0 2,0 4 2 S 10
08.11.2019 14:00:00 4,0 2,0 5 3 SW 10
08.11.2019 13:00:00 4,0 3,0 5 3 - 10
08.11.2019 12:00:00 4,0 3,0 9 5 SSW 10
08.11.2019 11:00:00 2,0 2,0 8 4 SW 10
08.11.2019 10:00:00 1,0 1,0 8 4 SSW 10
08.11.2019 09:00:00 1,0 0,0 9 5 S 5
08.11.2019 08:00:00 1,0 0,0 9 5 SSW 10
08.11.2019 07:00:00 0,0 -1,0 5 3 SSW 10
08.11.2019 06:00:00 2,0 0,0 4 2 - 10
08.11.2019 05:00:00 1,0 -1,0 2 1 - 10
08.11.2019 04:00:00 1,0 -1,0 5 3 NNW 10
08.11.2019 03:00:00 - - - - - -
08.11.2019 02:00:00 2,0 0,0 15 8 N 10
08.11.2019 01:00:00 3,0 1,0 18 10 N 10
08.11.2019 00:00:00 3,0 1,0 16 9 N 10
07.11.2019 23:00:00 3,0 1,0 18 10 N 10
07.11.2019 22:00:00 5,0 2,0 24 13 N 10
07.11.2019 21:00:00 5,0 3,0 24 13 NE 9
07.11.2019 20:00:00 4,0 1,0 5 3 - 10
07.11.2019 19:00:00 5,0 1,0 24 13 NNE 10
07.11.2019 18:00:00 3,0 2,0 9 5 E 10
07.11.2019 17:00:00 4,0 2,0 13 7 E 10
07.11.2019 16:00:00 5,0 3,0 15 8 E 10
07.11.2019 15:00:00 5,0 3,0 21 11 E 10
07.11.2019 14:00:00 6,0 3,0 26 14 NE 10
07.11.2019 13:00:00 7,0 3,0 26 14 ENE 10
07.11.2019 12:00:00 7,0 4,0 16 9 ENE 10
07.11.2019 11:00:00 7,0 4,0 18 10 ENE 10
07.11.2019 10:00:00 5,0 4,0 9 5 ENE 10
07.11.2019 09:00:00 4,0 3,0 9 5 NE 10
07.11.2019 08:00:00 4,0 3,0 9 5 NE 10
07.11.2019 07:00:00 4,0 3,0 13 7 NE 10
07.11.2019 06:00:00 3,0 3,0 8 4 ENE 10
07.11.2019 05:00:00 3,0 3,0 5 3 E 10
07.11.2019 04:00:00 3,0 3,0 4 2 E 10
07.11.2019 03:00:00 4,0 3,0 8 4 ENE 10
07.11.2019 02:00:00 3,0 3,0 9 5 NE 10
07.11.2019 01:00:00 3,0 3,0 8 4 NE 10
07.11.2019 00:00:00 2,0 2,0 4 2 NE 10
06.11.2019 23:00:00 2,0 2,0 5 3 NE 10
06.11.2019 22:00:00 3,0 2,0 11 6 ENE 10
06.11.2019 21:00:00 2,0 2,0 5 3 ENE 10
06.11.2019 20:00:00 1,0 1,0 4 2 - 10
06.11.2019 19:00:00 2,0 1,0 8 4 ENE 10
06.11.2019 18:00:00 3,0 3,0 0 0 N 10
06.11.2019 17:00:00 3,0 3,0 0 0 N 10
06.11.2019 16:00:00 4,0 4,0 4 2 NE 10
06.11.2019 15:00:00 4,0 4,0 5 3 NNE 10
06.11.2019 14:00:00 3,0 3,0 2 1 - 10
06.11.2019 13:00:00 2,0 2,0 0 0 N 0,9
06.11.2019 12:00:00 2,0 2,0 2 1 - 0,2
06.11.2019 11:00:00 1,0 1,0 0 0 N 0,4
06.11.2019 10:00:00 0,0 0,0 0 0 N 0,4
06.11.2019 09:00:00 0,0 0,0 5 3 SSE 0,1
06.11.2019 08:00:00 0,0 0,0 5 3 SSW 0,2
06.11.2019 07:00:00 -2,0 -2,0 4 2 SSW 0,5
06.11.2019 06:00:00 -1,0 -1,0 2 1 - 10

tt = temperature
td = dewpoint
ff = wind speed
dd = wind direction
vv = visibility

Next stations